Time;durP1;ratioP1;P1;durP2;ratioP2;P2;SDS_P1;SDS_P2;PMS_P1;PMS_P2;Temp;Humidity;BMP_temperature;BMP_pressure;BME280_temperature;BME280_humidity;BME280_pressure;Samples;Min_cycle;Max_cycle;Signal;HPM_P1;HPM_P2
2023/01/16 00:02:03;;;;;;;100.20;44.88;;;;;;;11.40;98.87;93352.31;5055464;28;20033;-88
2023/01/16 00:04:28;;;;;;;84.25;40.33;;;;;;;11.59;98.50;93339.03;5055397;28;20030;-87
2023/01/16 00:06:54;;;;;;;84.60;38.30;;;;;;;10.97;100.00;93342.25;5055200;28;20041;-88
2023/01/16 00:09:20;;;;;;;89.78;42.00;;;;;;;11.35;100.00;93334.09;5022359;28;20041;-88
2023/01/16 00:11:46;;;;;;;85.85;39.67;;;;;;;11.15;100.00;93324.84;5038736;28;20071;-88
2023/01/16 00:14:12;;;;;;;96.68;42.72;;;;;;;11.13;100.00;93338.22;5021951;28;20033;-87
2023/01/16 00:16:37;;;;;;;1083.95;77.47;;;;;;;10.99;96.43;93337.47;5038161;28;20075;-88
2023/01/16 00:19:03;;;;;;;87.22;41.83;;;;;;;11.34;99.44;93332.53;5054864;28;20346;-88
2023/01/16 00:21:29;;;;;;;84.20;41.22;;;;;;;11.40;98.15;93333.97;5038280;28;20126;-88
2023/01/16 00:23:56;;;;;;;83.20;41.40;;;;;;;11.59;99.22;93338.25;5022202;28;20403;-88
2023/01/16 00:26:22;;;;;;;81.65;39.30;;;;;;;11.79;96.70;93333.63;5038082;28;20029;-87
2023/01/16 00:28:48;;;;;;;74.78;37.92;;;;;;;11.54;98.18;93322.66;5054886;28;20040;-87
2023/01/16 00:31:13;;;;;;;69.65;36.17;;;;;;;11.73;97.97;93311.97;5038416;28;20033;-88
2023/01/16 00:33:39;;;;;;;73.07;37.17;;;;;;;11.71;96.01;93316.75;5038208;28;20088;-88
2023/01/16 00:36:04;;;;;;;78.40;38.17;;;;;;;11.58;95.99;93323.59;5054594;28;20034;-88
2023/01/16 00:38:32;;;;;;;73.85;38.17;;;;;;;11.58;95.98;93328.84;5039317;28;20056;-88
2023/01/16 00:40:57;;;;;;;84.07;39.00;;;;;;;11.49;100.00;93323.53;5038312;28;20037;-88
2023/01/16 00:43:23;;;;;;;424.40;50.90;;;;;;;11.52;91.67;93319.56;5054739;28;20033;-88
2023/01/16 00:45:49;;;;;;;69.10;34.92;;;;;;;10.77;100.00;93314.63;5039083;28;20037;-88
2023/01/16 00:48:15;;;;;;;64.07;34.03;;;;;;;11.35;98.16;93320.97;5039201;28;20103;-88
2023/01/16 00:50:40;;;;;;;77.38;37.70;;;;;;;11.68;94.37;93320.75;5037917;28;20037;-88
2023/01/16 00:53:06;;;;;;;134.93;40.65;;;;;;;11.84;91.14;93309.88;5054540;28;20106;-88
2023/01/16 00:55:36;;;;;;;93.13;40.38;;;;;;;11.98;91.86;93296.66;5038074;28;20088;-88
2023/01/16 00:58:02;;;;;;;58.72;31.08;;;;;;;11.30;93.09;93294.84;5053796;28;20029;-88
2023/01/16 01:00:28;;;;;;;63.83;33.58;;;;;;;11.29;95.54;93301.97;5053831;28;20065;-88
2023/01/16 01:02:53;;;;;;;124.65;35.17;;;;;;;10.47;100.00;93312.31;5037883;28;20431;-88
2023/01/16 01:05:19;;;;;;;716.60;65.97;;;;;;;10.30;100.00;93305.03;5054294;28;20037;-88
2023/01/16 01:07:44;;;;;;;264.65;42.92;;;;;;;10.87;100.00;93315.19;5037443;28;20358;-88
2023/01/16 01:10:10;;;;;;;69.22;32.75;;;;;;;9.88;100.00;93303.16;5053814;28;20386;-88
2023/01/16 01:12:35;;;;;;;71.78;34.40;;;;;;;10.58;100.00;93302.44;5054166;28;20033;-88
2023/01/16 01:15:01;;;;;;;61.28;30.10;;;;;;;10.40;100.00;93309.28;5020735;28;20033;-88
2023/01/16 01:17:27;;;;;;;73.78;33.72;;;;;;;10.21;100.00;93302.31;5037578;28;20095;-89
2023/01/16 01:19:52;;;;;;;61.05;30.17;;;;;;;10.46;100.00;93305.53;5037420;28;20040;-88
2023/01/16 01:22:18;;;;;;;67.30;29.10;;;;;;;10.28;100.00;93315.78;5054012;28;20320;-87
2023/01/16 01:24:47;;;;;;;60.33;27.00;;;;;;;10.70;100.00;93307.94;5053820;28;20465;-87
2023/01/16 01:27:13;;;;;;;54.45;24.00;;;;;;;10.33;100.00;93309.69;5020548;28;20037;-88
2023/01/16 01:29:38;;;;;;;46.28;22.10;;;;;;;10.52;100.00;93308.81;5037182;28;20419;-88
2023/01/16 01:32:05;;;;;;;57.28;22.73;;;;;;;10.89;100.00;93320.13;5053681;28;20435;-88
2023/01/16 01:34:38;;;;;;;43.50;19.35;;;;;;;10.81;100.00;93315.56;5053456;28;20033;-88
2023/01/16 01:37:05;;;;;;;45.72;21.13;;;;;;;10.81;100.00;93310.34;5038159;28;20025;-88
2023/01/16 01:39:31;;;;;;;49.08;21.25;;;;;;;10.42;100.00;93309.81;5037181;28;20460;-87
2023/01/16 01:44:50;;;;;;;253.32;42.45;;;;;;;10.68;100.00;93296.19;5050951;28;20504;-87
2023/01/16 01:47:16;;;;;;;1343.72;112.53;;;;;;;10.15;100.00;93272.06;5037618;28;20041;-87
2023/01/16 01:49:42;;;;;;;609.22;73.63;;;;;;;10.55;100.00;93267.13;5053369;28;20033;-87
2023/01/16 01:52:09;;;;;;;957.70;100.78;;;;;;;11.08;100.00;93261.53;5036927;28;20441;-88
2023/01/16 01:54:59;;;;;;;961.58;95.38;;;;;;;11.07;100.00;93262.63;5036775;28;20037;-87
2023/01/16 01:57:32;;;;;;;280.08;60.70;;;;;;;11.00;100.00;93255.94;5013061;28;20044;-87
2023/01/16 02:00:05;;;;;;;656.38;78.60;;;;;;;11.22;99.40;93256.25;5037864;28;20033;-88
2023/01/16 02:02:34;;;;;;;;;;;;;;;11.38;98.15;93260.06;5053646;28;20036;-88
2023/01/16 02:05:07;;;;;;;487.35;70.18;;;;;;;11.09;100.00;93263.88;5036718;28;19909;-88
2023/01/16 02:07:37;;;;;;;;;;;;;;;11.34;98.93;93253.88;5053394;28;20040;-88
2023/01/16 02:10:15;;;;;;;344.83;60.95;;;;;;;11.56;97.58;93244.44;5037199;28;20250;-88
2023/01/16 02:12:41;;;;;;;151.48;50.53;;;;;;;11.48;100.00;93237.28;5052233;28;20032;-88
2023/01/16 02:15:06;;;;;;;456.48;62.08;;;;;;;11.44;96.83;93239.75;5052930;28;20033;-88
2023/01/16 02:20:23;;;;;;;127.13;47.20;;;;;;;11.60;94.93;93240.13;5037473;28;20573;-88
2023/01/16 02:23:14;;;;;;;636.33;75.75;;;;;;;11.60;93.23;93233.03;5052661;28;20032;-88
2023/01/16 02:25:54;;;;;;;405.23;60.25;;;;;;;11.63;97.70;93244.00;5036084;28;20041;-88
2023/01/16 02:28:28;;;;;;;138.75;46.85;;;;;;;11.63;96.97;93244.78;5037042;28;20044;-88
2023/01/16 02:31:10;;;;;;;135.77;47.10;;;;;;;11.65;95.49;93244.47;5037046;28;20033;-88
2023/01/16 02:34:28;;;;;;;88.00;39.05;;;;;;;11.97;96.00;93222.38;5035887;28;20030;-89
2023/01/16 02:37:38;;;;;;;953.45;82.45;;;;;;;11.20;98.54;93225.09;5036883;28;20359;-88
2023/01/16 02:40:11;;;;;;;182.00;45.53;;;;;;;11.45;100.00;93210.56;5018031;28;20037;-88
2023/01/16 02:42:57;;;;;;;368.13;55.63;;;;;;;11.23;100.00;93193.03;5036890;28;20029;-88
2023/01/16 02:45:45;;;;;;;346.77;54.42;;;;;;;11.48;100.00;93192.69;5052578;28;20018;-88
2023/01/16 02:48:23;;;;;;;88.90;42.95;;;;;;;11.95;97.00;93184.38;5036110;28;20094;-88
2023/01/16 02:50:52;;;;;;;128.73;42.28;;;;;;;11.66;96.91;93191.72;5036717;28;20120;-88
2023/01/16 02:53:31;;;;;;;715.55;62.30;;;;;;;11.50;93.67;93191.31;5036729;28;20327;-88
2023/01/16 02:56:08;;;;;;;453.27;51.75;;;;;;;11.82;97.23;93184.19;5023719;28;20041;-88
2023/01/16 02:58:36;;;;;;;77.80;36.03;;;;;;;11.78;94.09;93182.50;5009564;28;20026;-88
2023/01/16 03:01:01;;;;;;;66.03;33.22;;;;;;;11.90;94.17;93189.78;5015024;28;20033;-88
2023/01/16 03:03:47;;;;;;;62.88;30.88;;;;;;;11.81;92.52;93184.50;5019348;28;20021;-88
2023/01/16 03:06:22;;;;;;;57.95;27.80;;;;;;;12.10;93.50;93186.63;5035559;28;20025;-88
2023/01/16 03:09:12;;;;;;;52.70;25.92;;;;;;;12.15;92.35;93183.06;5036685;28;20029;-88
2023/01/16 03:12:06;;;;;;;64.15;33.17;;;;;;;12.02;90.48;93190.00;5036727;28;20064;-88
2023/01/16 03:14:38;;;;;;;61.83;30.77;;;;;;;11.77;91.46;93188.81;5052279;28;20415;-88
2023/01/16 03:17:15;;;;;;;65.07;32.15;;;;;;;11.36;90.65;93188.00;5036721;28;20075;-88
2023/01/16 03:20:02;;;;;;;55.20;29.17;;;;;;;11.54;95.14;93181.00;5036402;28;20029;-88
2023/01/16 03:22:54;;;;;;;49.15;24.83;;;;;;;11.74;91.96;93179.69;5035689;28;20026;-88
2023/01/16 03:25:34;;;;;;;54.92;27.17;;;;;;;11.22;96.17;93175.00;5039591;28;20342;-88
2023/01/16 03:28:14;;;;;;;53.03;24.58;;;;;;;11.42;91.43;93182.34;5039304;28;20040;-88
2023/01/16 03:30:40;;;;;;;58.88;25.98;;;;;;;10.51;97.88;93171.09;5040590;28;20025;-88
2023/01/16 03:33:25;;;;;;;57.28;27.38;;;;;;;10.48;100.00;93162.00;5040127;28;20443;-88
2023/01/16 03:36:04;;;;;;;61.25;27.58;;;;;;;10.80;100.00;93157.63;5039827;28;20497;-88
2023/01/16 03:38:31;;;;;;;305.58;36.72;;;;;;;10.43;100.00;93143.78;5039342;28;20140;-88
2023/01/16 03:41:00;;;;;;;56.13;26.20;;;;;;;10.29;100.00;93134.09;5039359;28;20108;-88
2023/01/16 03:43:30;;;;;;;61.65;26.20;;;;;;;10.26;100.00;93129.44;5023067;28;20021;-88
2023/01/16 03:46:00;;;;;;;59.67;26.20;;;;;;;10.19;100.00;93127.22;5039143;28;20021;-87
2023/01/16 03:48:34;;;;;;;56.60;25.98;;;;;;;10.30;97.75;93119.91;5023164;28;20028;-88
2023/01/16 03:51:04;;;;;;;52.35;23.00;;;;;;;10.32;98.59;93117.78;5039390;28;20485;-88
2023/01/16 03:53:33;;;;;;;44.45;20.58;;;;;;;10.31;98.15;93113.63;5055916;28;20443;-88
2023/01/16 03:56:12;;;;;;;44.25;19.50;;;;;;;9.81;99.09;93103.19;5022560;28;20496;-88
2023/01/16 03:58:39;;;;;;;39.97;18.63;;;;;;;10.04;100.00;93107.41;5024486;28;20125;-88
2023/01/16 04:01:24;;;;;;;35.63;17.02;;;;;;;10.36;96.81;93099.63;5028897;28;20021;-88
2023/01/16 04:04:07;;;;;;;36.90;18.17;;;;;;;10.03;100.00;93100.59;5022221;28;20087;-87
2023/01/16 04:06:45;;;;;;;41.72;19.05;;;;;;;10.37;100.00;93082.84;5022499;28;20021;-88
2023/01/16 04:09:28;;;;;;;31.10;15.50;;;;;;;10.53;99.05;93074.66;5039669;28;20033;-88
2023/01/16 04:11:54;;;;;;;33.95;16.58;;;;;;;10.36;98.13;93076.06;5022446;28;20029;-88
2023/01/16 04:14:21;;;;;;;69.13;17.98;;;;;;;10.38;94.34;93073.19;5038275;28;20473;-89
2023/01/16 04:16:47;;;;;;;92.25;16.35;;;;;;;10.29;92.63;93071.25;5022218;28;20029;-88
2023/01/16 04:19:13;;;;;;;41.88;17.88;;;;;;;10.37;91.96;93071.63;5022197;28;20335;-88
2023/01/16 04:21:42;;;;;;;873.90;63.30;;;;;;;9.91;97.11;93061.13;5022346;28;20421;-88
2023/01/16 04:24:08;;;;;;;42.97;20.60;;;;;;;9.86;100.00;93061.19;5022209;28;20029;-88
2023/01/16 04:26:33;;;;;;;240.65;26.23;;;;;;;9.50;100.00;93062.72;5038375;28;20411;-89
2023/01/16 04:28:59;;;;;;;207.82;26.13;;;;;;;9.54;100.00;93055.84;5055161;28;20423;-88
2023/01/16 04:31:27;;;;;;;50.78;19.85;;;;;;;9.87;100.00;93050.47;5039105;28;20032;-88
2023/01/16 04:33:52;;;;;;;39.67;19.38;;;;;;;9.86;99.93;93048.91;5038036;28;20052;-88
2023/01/16 04:36:18;;;;;;;38.45;17.90;;;;;;;10.03;96.33;93045.66;5038403;28;20140;-88
2023/01/16 04:38:43;;;;;;;55.40;19.80;;;;;;;9.89;95.18;93056.16;5038142;28;20025;-87
2023/01/16 04:41:09;;;;;;;41.47;17.77;;;;;;;10.00;94.83;93045.50;5038031;28;20450;-88
2023/01/16 04:43:34;;;;;;;188.07;22.73;;;;;;;9.44;100.00;93037.75;5038179;28;20032;-88
2023/01/16 04:46:00;;;;;;;37.15;18.08;;;;;;;9.67;99.71;93030.72;5021618;28;20041;-88
2023/01/16 04:48:25;;;;;;;31.13;15.70;;;;;;;9.65;97.77;93032.88;5021780;28;20021;-88
2023/01/16 04:50:51;;;;;;;35.13;16.88;;;;;;;9.39;99.71;93020.31;5037975;28;20339;-88
2023/01/16 04:53:16;;;;;;;34.47;15.23;;;;;;;8.71;100.00;93023.41;5021789;28;20420;-88
2023/01/16 04:55:41;;;;;;;27.98;13.50;;;;;;;8.41;100.00;93028.06;5037880;28;20343;-88
2023/01/16 04:58:07;;;;;;;30.33;14.38;;;;;;;9.15;100.00;93030.97;5037761;28;20025;-88
2023/01/16 05:00:32;;;;;;;45.65;15.95;;;;;;;8.86;100.00;93027.56;5037807;28;20025;-88
2023/01/16 05:02:58;;;;;;;40.15;17.88;;;;;;;8.89;100.00;93021.00;5036795;28;20033;-88
2023/01/16 05:05:25;;;;;;;43.20;17.50;;;;;;;9.01;100.00;93013.47;5054789;28;20017;-88
2023/01/16 05:08:15;;;;;;;38.33;16.98;;;;;;;8.97;100.00;93016.94;5038771;28;20119;-88
2023/01/16 05:10:36;;;;;;;33.08;15.10;;;;;;;9.15;100.00;93012.69;5051580;28;20030;-88
2023/01/16 05:13:01;;;;;;;41.03;17.25;;;;;;;8.73;100.00;93007.44;5054120;28;20431;-88
2023/01/16 05:15:27;;;;;;;36.92;17.58;;;;;;;8.67;100.00;93006.75;5037622;28;20030;-88
2023/01/16 05:17:54;;;;;;;39.92;17.00;;;;;;;8.97;100.00;93009.09;5053997;28;20025;-88
2023/01/16 05:20:19;;;;;;;41.08;17.00;;;;;;;9.17;100.00;93005.34;5038742;28;20446;-88
2023/01/16 05:22:45;;;;;;;39.75;16.80;;;;;;;9.14;100.00;93008.53;5037618;28;20053;-88
2023/01/16 05:25:10;;;;;;;42.38;18.17;;;;;;;9.16;100.00;93007.16;5024869;28;20060;-88
2023/01/16 05:27:36;;;;;;;42.75;18.05;;;;;;;8.87;100.00;93000.38;5017601;28;20137;-88
2023/01/16 05:30:01;;;;;;;37.90;17.10;;;;;;;9.21;100.00;92995.84;5017773;28;20028;-88
2023/01/16 05:32:26;;;;;;;36.80;17.65;;;;;;;9.36;99.51;92996.59;5017303;28;20068;-88
2023/01/16 05:34:52;;;;;;;49.67;19.33;;;;;;;8.74;100.00;92991.50;5033686;28;20427;-88
2023/01/16 05:37:17;;;;;;;45.25;19.08;;;;;;;9.19;100.00;92996.16;5018415;28;20034;-89
2023/01/16 05:39:43;;;;;;;39.58;18.65;;;;;;;9.15;100.00;92992.56;5017371;28;20105;-87
2023/01/16 05:42:20;;;;;;;43.15;19.33;;;;;;;9.04;99.75;92988.63;5017496;28;20037;-87
2023/01/16 05:44:48;;;;;;;37.60;16.38;;;;;;;9.34;98.86;92981.22;5018382;28;20025;-88
2023/01/16 05:47:13;;;;;;;38.22;16.25;;;;;;;9.11;100.00;92985.56;5016881;28;20072;-87
2023/01/16 05:49:39;;;;;;;27.88;12.45;;;;;;;9.22;100.00;92989.53;5017481;28;20029;-89
2023/01/16 05:52:04;;;;;;;46.33;18.40;;;;;;;8.62;100.00;92986.75;5020816;28;20023;-88
2023/01/16 05:54:30;;;;;;;41.38;15.38;;;;;;;9.09;100.00;92988.50;5036548;28;20037;-88
2023/01/16 05:56:55;;;;;;;33.47;14.50;;;;;;;9.32;100.00;92984.13;5038278;28;20025;-87
2023/01/16 05:59:20;;;;;;;31.17;14.00;;;;;;;9.37;97.94;92977.22;5036684;28;20049;-87
2023/01/16 06:01:46;;;;;;;30.48;13.57;;;;;;;9.38;99.42;92979.56;5036596;28;20316;-87
2023/01/16 06:04:11;;;;;;;29.35;13.25;;;;;;;9.35;99.47;92964.47;5037735;28;20484;-87
2023/01/16 06:06:37;;;;;;;25.38;12.52;;;;;;;9.40;97.51;92960.97;5020094;28;20025;-87
2023/01/16 06:09:02;;;;;;;31.35;13.52;;;;;;;9.24;97.87;92961.28;5036320;28;20025;-87
2023/01/16 06:11:28;;;;;;;27.27;12.52;;;;;;;9.18;98.36;92954.63;5052912;28;20026;-87
2023/01/16 06:13:53;;;;;;;34.00;14.07;;;;;;;9.30;99.85;92948.88;5020184;28;20032;-88
2023/01/16 06:16:19;;;;;;;22.35;10.25;;;;;;;9.30;96.26;92957.50;5019964;28;20021;-88
2023/01/16 06:18:44;;;;;;;37.25;15.93;;;;;;;8.92;98.56;92955.13;5037518;28;20067;-88
2023/01/16 06:21:10;;;;;;;28.48;13.63;;;;;;;8.79;100.00;92954.06;5035964;28;20442;-88
2023/01/16 06:23:38;;;;;;;31.02;12.65;;;;;;;8.90;100.00;92952.03;5052696;28;20029;-88
2023/01/16 06:26:05;;;;;;;28.73;11.38;;;;;;;9.23;100.00;92951.88;5052705;28;20059;-88
2023/01/16 06:28:31;;;;;;;26.15;11.82;;;;;;;9.11;100.00;92949.78;5020154;28;20339;-88
2023/01/16 06:30:56;;;;;;;23.55;10.68;;;;;;;9.31;99.33;92945.19;5036670;28;20029;-89
2023/01/16 06:33:22;;;;;;;23.27;10.00;;;;;;;9.05;97.11;92945.75;5052793;28;20418;-89
2023/01/16 06:35:48;;;;;;;21.40;10.05;;;;;;;9.10;100.00;92945.63;5052622;28;20025;-87
2023/01/16 06:38:14;;;;;;;20.88;9.68;;;;;;;9.06;98.60;92947.28;5036403;28;20026;-92
2023/01/16 06:40:39;;;;;;;21.60;9.48;;;;;;;9.17;100.00;92946.00;5052636;28;20069;-89
2023/01/16 06:43:05;;;;;;;15.77;7.85;;;;;;;9.19;98.00;92948.31;5053041;28;20083;-89
2023/01/16 06:45:30;;;;;;;21.00;9.20;;;;;;;9.12;100.00;92953.94;5036361;28;20331;-90
2023/01/16 06:47:56;;;;;;;19.65;8.88;;;;;;;9.06;99.93;92952.50;5052332;28;20435;-89
2023/01/16 06:50:24;;;;;;;19.60;9.13;;;;;;;9.55;96.99;92947.59;5052208;28;20338;-90
2023/01/16 06:52:50;;;;;;;24.88;10.10;;;;;;;8.91;100.00;92943.91;5032572;28;20065;-89
2023/01/16 06:55:20;;;;;;;20.05;8.60;;;;;;;9.43;100.00;92949.94;5052591;28;20076;-90
2023/01/16 06:57:45;;;;;;;24.25;9.98;;;;;;;8.82;100.00;92932.59;5035061;28;20025;-89
2023/01/16 07:00:12;;;;;;;15.43;8.32;;;;;;;8.94;100.00;92933.94;5037059;28;20406;-90
2023/01/16 07:02:39;;;;;;;20.48;8.40;;;;;;;9.21;100.00;92935.72;5035686;28;20439;-89
2023/01/16 07:05:09;;;;;;;15.73;6.95;;;;;;;9.57;97.87;92939.44;5020413;28;20029;-89
2023/01/16 07:07:34;;;;;;;22.95;8.43;;;;;;;9.11;100.00;92938.56;5035555;28;20036;-90
2023/01/16 07:10:00;;;;;;;16.88;7.65;;;;;;;9.58;100.00;92933.13;5035900;28;20033;-89
2023/01/16 07:12:26;;;;;;;27.35;10.13;;;;;;;9.58;100.00;92920.84;5036409;28;20032;-89
2023/01/16 07:23:37;;;;;;;19.50;7.35;;;;;;;10.24;98.28;92909.09;5036037;28;20033;-90
2023/01/16 07:26:04;;;;;;;18.08;8.85;;;;;;;10.28;99.94;92910.03;5036704;28;20025;-90
2023/01/16 07:28:31;;;;;;;15.77;7.18;;;;;;;10.00;100.00;92901.56;5035717;28;20038;-90
2023/01/16 07:30:57;;;;;;;23.27;7.07;;;;;;;10.29;100.00;92900.34;5035539;28;20068;-91
2023/01/16 07:33:23;;;;;;;16.83;6.32;;;;;;;10.52;100.00;92888.00;5035710;28;20083;-90
2023/01/16 07:35:48;;;;;;;26.92;7.60;;;;;;;10.61;100.00;92882.78;5035750;28;20029;-90
2023/01/16 07:44:57;;;;;;;21.77;9.60;;;;;;;10.60;97.95;92876.75;5036723;28;20033;-90
2023/01/16 07:47:23;;;;;;;14.23;5.25;;;;;;;10.69;96.19;92876.81;5035900;28;20025;-90
2023/01/16 07:49:48;;;;;;;14.98;4.05;;;;;;;10.18;100.00;92869.19;5035866;28;20021;-91
2023/01/16 07:52:14;;;;;;;14.57;5.25;;;;;;;10.55;98.34;92876.16;5035619;28;20339;-90
2023/01/16 07:54:41;;;;;;;14.70;5.20;;;;;;;10.68;100.00;92874.47;5019106;28;20438;-90
2023/01/16 07:57:06;;;;;;;23.45;11.43;;;;;;;10.92;100.00;92868.06;5035333;28;20044;-91
2023/01/16 07:59:31;;;;;;;24.55;8.95;;;;;;;10.59;100.00;92869.97;5035472;28;20025;-90
2023/01/16 08:01:57;;;;;;;23.98;9.95;;;;;;;10.28;100.00;92860.28;5035422;28;20029;-90
2023/01/16 08:04:22;;;;;;;17.70;6.93;;;;;;;9.74;100.00;92861.09;5035363;28;20045;-90
2023/01/16 08:06:48;;;;;;;13.80;4.20;;;;;;;10.70;100.00;92864.47;5035367;28;20029;-90
2023/01/16 08:09:13;;;;;;;19.92;7.72;;;;;;;11.01;100.00;92853.91;5035416;28;20026;-91
2023/01/16 08:11:39;;;;;;;23.52;8.75;;;;;;;11.00;100.00;92848.94;5038641;28;20191;-90
2023/01/16 08:14:06;;;;;;;26.13;7.70;;;;;;;10.86;100.00;92843.88;5038781;28;20052;-90
2023/01/16 08:16:32;;;;;;;11.50;2.40;;;;;;;10.75;82.99;92825.03;5022413;28;20029;-90
2023/01/16 08:18:57;;;;;;;4.72;1.85;;;;;;;11.12;78.82;92833.41;5038983;28;20079;-91
2023/01/16 08:21:23;;;;;;;9.68;2.42;;;;;;;11.91;81.81;92819.44;5038950;28;20035;-90
2023/01/16 08:23:49;;;;;;;5.68;2.00;;;;;;;12.17;73.49;92826.47;5038975;28;20385;-91
2023/01/16 08:26:14;;;;;;;6.05;2.58;;;;;;;12.35;86.63;92829.81;5038732;28;20025;-91
2023/01/16 08:28:40;;;;;;;9.27;1.73;;;;;;;12.26;69.27;92824.59;5038467;28;20037;-90
2023/01/16 08:31:08;;;;;;;4.25;1.63;;;;;;;12.55;71.03;92820.44;5038656;28;20037;-91
2023/01/16 08:33:35;;;;;;;6.35;1.63;;;;;;;12.73;73.91;92820.34;5038395;28;20063;-90
2023/01/16 08:36:02;;;;;;;19.35;4.68;;;;;;;12.79;83.65;92816.44;5021937;28;20324;-90
2023/01/16 08:38:28;;;;;;;10.70;4.32;;;;;;;12.72;87.46;92819.59;5038614;28;20032;-91
2023/01/16 08:40:53;;;;;;;21.02;9.07;;;;;;;12.50;88.19;92817.22;5038520;28;20030;-91
2023/01/16 08:51:21;;;;;;;5.75;2.65;;;;;;;12.43;93.08;92815.88;5038346;28;20040;-90
2023/01/16 08:51:36;;;;;;;14.13;5.07;;;;;;;12.40;77.91;92818.34;5038024;28;20477;-91
2023/01/16 08:54:02;;;;;;;11.98;2.40;;;;;;;12.27;72.51;92810.38;5021947;28;20048;-91
2023/01/16 08:56:27;;;;;;;9.55;3.60;;;;;;;12.34;75.89;92809.88;5021955;28;20029;-90
2023/01/16 08:58:53;;;;;;;12.32;2.95;;;;;;;12.19;70.29;92816.41;5021620;28;20079;-91
2023/01/16 09:01:19;;;;;;;9.32;2.20;;;;;;;12.55;73.05;92811.78;5038309;28;20022;-90
2023/01/16 09:03:45;;;;;;;30.90;12.93;;;;;;;12.99;74.86;92803.63;5038585;28;20035;-90
2023/01/16 09:06:10;;;;;;;18.40;6.88;;;;;;;12.96;79.23;92801.66;5038261;28;20021;-90
2023/01/16 09:08:36;;;;;;;35.70;14.70;;;;;;;12.80;73.91;92812.75;5038000;28;20048;-90
2023/01/16 09:13:50;;;;;;;35.60;14.35;;;;;;;12.52;60.08;92807.16;5038074;28;20036;-91
2023/01/16 09:16:21;;;;;;;6.63;3.25;;;;;;;12.57;59.90;92810.38;5038026;28;20111;-90
2023/01/16 09:18:46;;;;;;;10.73;2.97;;;;;;;13.09;58.45;92800.63;5054561;28;20033;-90
2023/01/16 09:21:12;;;;;;;23.88;8.15;;;;;;;13.17;59.04;92795.63;5020952;28;20033;-90
2023/01/16 09:23:52;;;;;;;10.35;4.82;;;;;;;13.41;63.63;92800.19;5021214;28;20037;-91
2023/01/16 09:26:18;;;;;;;8.18;2.53;;;;;;;12.90;77.67;92802.91;5021168;28;20053;-91
2023/01/16 09:28:43;;;;;;;9.50;4.05;;;;;;;13.09;68.79;92790.13;5021099;28;20405;-91
2023/01/16 09:31:09;;;;;;;12.05;4.70;;;;;;;13.29;58.29;92790.41;5021105;28;20029;-90
2023/01/16 09:33:36;;;;;;;6.72;2.00;;;;;;;12.82;54.79;92780.88;5037402;28;20040;-91
2023/01/16 09:36:02;;;;;;;6.18;2.55;;;;;;;12.93;69.57;92786.53;5037140;28;20425;-90
2023/01/16 09:38:27;;;;;;;6.10;2.42;;;;;;;13.68;62.78;92783.13;5021214;28;20061;-90
2023/01/16 09:40:58;;;;;;;5.13;2.13;;;;;;;14.31;59.11;92781.34;5037674;28;20040;-91
2023/01/16 09:43:41;;;;;;;39.67;20.05;;;;;;;14.37;52.89;92769.47;5037353;28;20082;-91
2023/01/16 09:46:35;;;;;;;5.07;1.38;;;;;;;14.01;48.51;92760.47;5020697;28;20021;-90
2023/01/16 09:49:21;;;;;;;12.98;3.40;;;;;;;14.49;53.90;92770.56;5036415;28;20446;-90
2023/01/16 10:00:34;;;;;;;7.50;3.00;;;;;;;14.23;50.52;92727.69;5051174;28;20118;-90
2023/01/16 10:03:00;;;;;;;7.00;1.90;;;;;;;14.65;51.92;92731.91;5020820;28;20128;-91
2023/01/16 10:05:33;;;;;;;4.03;1.55;;;;;;;14.50;52.96;92714.91;5020651;28;20130;-91
2023/01/16 10:08:23;;;;;;;8.90;2.35;;;;;;;14.40;60.17;92710.09;5020748;28;20029;-91
2023/01/16 10:10:55;;;;;;;4.13;1.77;;;;;;;13.11;63.31;92722.19;5020811;28;20327;-91
2023/01/16 10:13:29;;;;;;;3.28;1.60;;;;;;;14.01;54.72;92726.25;5020257;28;20037;-91
2023/01/16 10:16:15;;;;;;;4.07;1.48;;;;;;;14.79;53.08;92710.50;5036725;28;20445;-91
2023/01/16 10:18:59;;;;;;;49.80;20.75;;;;;;;16.17;52.58;92706.03;5020431;28;20067;-91
2023/01/16 10:22:01;;;;;;;12.18;4.10;;;;;;;16.00;54.60;92701.09;5036601;28;20101;-91
2023/01/16 10:24:54;;;;;;;20.23;5.53;;;;;;;16.91;54.29;92695.84;5028848;28;20440;-91
2023/01/16 10:27:41;;;;;;;34.05;16.88;;;;;;;16.68;51.31;92709.75;5037520;28;20103;-91
2023/01/16 10:30:15;;;;;;;9.93;3.60;;;;;;;17.87;46.70;92689.25;5018858;28;20041;-90
2023/01/16 10:32:43;;;;;;;14.05;7.20;;;;;;;17.63;49.18;92686.59;5008906;28;20037;-91
2023/01/16 10:35:14;;;;;;;5.63;1.27;;;;;;;15.93;44.26;92696.41;5017521;28;20030;-91
2023/01/16 10:37:42;;;;;;;13.63;1.40;;;;;;;12.89;51.42;92672.59;5016623;28;20033;-91
2023/01/16 10:40:15;;;;;;;4.47;1.05;;;;;;;13.57;52.15;92671.47;5000516;28;20030;-91
2023/01/16 10:51:01;;;;;;;3.60;1.00;;;;;;;11.47;57.21;92670.03;5016568;28;20123;-88
2023/01/16 10:53:27;;;;;;;4.65;1.38;;;;;;;12.05;57.17;92682.75;5000162;28;20065;-90
2023/01/16 10:55:53;;;;;;;3.35;0.82;;;;;;;11.26;58.02;92659.44;4999806;28;20037;-89
2023/01/16 10:58:29;;;;;;;9.68;1.00;;;;;;;10.89;57.88;92637.00;5016411;28;20444;-89
2023/01/16 11:01:10;;;;;;;9.93;1.00;;;;;;;11.66;56.57;92677.53;5017527;28;20521;-89
2023/01/16 11:03:45;;;;;;;4.35;0.85;;;;;;;11.79;58.56;92673.13;5016551;28;20045;-89
2023/01/16 11:06:13;;;;;;;8.23;1.33;;;;;;;12.18;57.81;92690.72;5016092;28;20411;-90
2023/01/16 11:08:43;;;;;;;11.77;1.00;;;;;;;11.64;59.44;92663.97;5016160;28;20026;-90
2023/01/16 11:18:27;;;;;;;7.35;1.08;;;;;;;10.96;62.57;92662.00;5000087;28;20032;-89
2023/01/16 11:19:30;;;;;;;5.20;0.82;;;;;;;12.54;54.50;92644.75;5017199;28;20111;-90
2023/01/16 11:22:06;;;;;;;20.17;1.63;;;;;;;12.07;54.64;92646.47;5000966;28;20029;-90
2023/01/16 11:24:33;;;;;;;8.38;0.88;;;;;;;12.49;55.27;92626.56;5016099;28;20044;-89
2023/01/16 11:27:00;;;;;;;6.82;1.33;;;;;;;12.28;53.99;92630.72;5016239;28;20021;-91
2023/01/16 11:29:30;;;;;;;9.23;1.30;;;;;;;12.13;55.61;92615.56;5016069;28;20029;-90
2023/01/16 11:31:56;;;;;;;7.75;1.85;;;;;;;13.55;54.35;92606.03;5016975;28;20030;-90
2023/01/16 11:34:26;;;;;;;9.05;2.42;;;;;;;14.55;52.47;92601.38;5016177;28;20021;-90
2023/01/16 11:36:53;;;;;;;9.05;1.48;;;;;;;13.78;53.94;92607.47;4999901;28;20144;-90
2023/01/16 11:39:21;;;;;;;4.18;0.82;;;;;;;13.17;56.90;92606.28;5032548;28;20339;-90
2023/01/16 11:41:50;;;;;;;6.18;0.80;;;;;;;13.25;55.33;92592.28;5016124;28;20048;-90
2023/01/16 11:47:04;;;;;;;5.80;1.20;;;;;;;12.48;51.82;92578.53;5019647;28;20032;-90
2023/01/16 11:49:38;;;;;;;3.45;0.98;;;;;;;12.28;51.86;92556.47;5020606;28;20030;-90
2023/01/16 11:52:03;;;;;;;7.80;1.05;;;;;;;11.93;50.83;92552.22;5020531;28;20065;-90
2023/01/16 11:54:31;;;;;;;4.05;1.10;;;;;;;13.43;47.78;92551.56;5019338;28;20057;-90
2023/01/16 11:57:37;;;;;;;6.20;1.25;;;;;;;13.21;48.82;92544.84;5003253;28;20041;-90
2023/01/16 12:00:24;;;;;;;5.60;1.10;;;;;;;13.63;48.24;92533.34;5003081;28;20033;-91
2023/01/16 12:02:52;;;;;;;3.13;0.90;;;;;;;11.98;50.74;92517.88;5031836;28;20033;-90
2023/01/16 12:05:54;;;;;;;4.78;0.93;;;;;;;11.87;52.42;92527.22;5032786;28;20072;-90
2023/01/16 12:08:31;;;;;;;7.88;0.98;;;;;;;12.25;51.23;92536.84;5020323;28;20045;-91
2023/01/16 12:11:06;;;;;;;3.33;1.00;;;;;;;12.13;51.22;92532.31;5035862;28;20145;-91
2023/01/16 12:16:39;;;;;;;5.65;0.77;;;;;;;10.69;58.85;92512.75;5033082;28;20529;-90
2023/01/16 12:19:17;;;;;;;1.98;0.70;;;;;;;11.37;57.94;92503.34;5020194;28;20029;-90
2023/01/16 12:22:07;;;;;;;4.97;0.50;;;;;;;10.26;65.73;92482.91;5035618;28;20032;-90
2023/01/16 12:24:36;;;;;;;9.38;1.25;;;;;;;11.05;64.02;92491.63;5035485;28;20331;-89
2023/01/16 12:27:09;;;;;;;5.93;0.70;;;;;;;11.35;68.86;92499.50;5035398;28;20025;-89
2023/01/16 12:30:05;;;;;;;11.10;1.50;;;;;;;12.12;65.38;92485.38;5035372;28;20080;-90
2023/01/16 12:32:45;;;;;;;5.80;0.73;;;;;;;11.65;63.67;92481.88;5019771;28;20423;-90
2023/01/16 12:35:23;;;;;;;5.85;0.63;;;;;;;11.70;63.86;92494.03;5035234;28;20065;-90